Time;durP1;ratioP1;P1;durP2;ratioP2;P2;SDS_P1;SDS_P2;PMS_P1;PMS_P2;Temp;Humidity;BMP_temperature;BMP_pressure;BME280_temperature;BME280_humidity;BME280_pressure;Samples;Min_cycle;Max_cycle;Signal;HPM_P1;HPM_P2
2023/11/05 00:03:55;;;;;;;2.25;0.40;;;9.40;99.90;;;;;;15577218;22;20023;-33
2023/11/05 00:10:27;;;;;;;5.10;0.60;;;9.40;99.90;;;;;;15577788;22;20157;-34
2023/11/05 00:16:56;;;;;;;3.22;0.57;;;9.30;99.90;;;;;;15552262;22;20035;-34
2023/11/05 00:23:27;;;;;;;3.10;0.57;;;9.20;99.90;;;;;;15575967;22;20020;-34
2023/11/05 00:30:13;;;;;;;2.47;0.60;;;9.20;99.90;;;;;;15578889;22;20023;-34
2023/11/05 00:36:49;;;;;;;1.90;0.50;;;9.10;99.90;;;;;;15551973;22;20465;-33
2023/11/05 00:43:20;;;;;;;2.83;0.50;;;9.20;99.90;;;;;;15572237;22;20019;-34
2023/11/05 00:50:03;;;;;;;2.22;0.57;;;9.20;99.90;;;;;;15572897;22;20389;-34
2023/11/05 00:56:48;;;;;;;2.75;0.60;;;9.20;99.90;;;;;;15575065;22;20031;-34
2023/11/05 01:03:23;;;;;;;3.60;0.63;;;9.30;99.90;;;;;;15575434;22;20058;-34
2023/11/05 01:10:01;;;;;;;2.78;0.63;;;9.30;99.90;;;;;;15573819;22;20473;-33
2023/11/05 01:16:39;;;;;;;5.85;0.65;;;9.30;99.90;;;;;;15576828;22;20027;-34
2023/11/05 01:23:14;;;;;;;3.78;0.80;;;9.30;99.90;;;;;;15576264;22;20022;-34
2023/11/05 01:29:52;;;;;;;2.60;0.55;;;9.40;99.90;;;;;;15578598;22;20027;-33
2023/11/05 01:36:27;;;;;;;2.55;0.70;;;9.30;99.90;;;;;;15574765;22;20027;-33
2023/11/05 01:43:03;;;;;;;2.53;0.40;;;9.40;99.90;;;;;;15560984;22;20016;-33
2023/11/05 01:49:45;;;;;;;2.25;0.40;;;9.40;99.90;;;;;;15576583;22;20023;-34
2023/11/05 01:56:17;;;;;;;4.20;0.80;;;9.50;99.90;;;;;;15574497;22;20020;-34
2023/11/05 02:02:55;;;;;;;3.80;0.60;;;9.50;99.90;;;;;;15579363;22;20058;-34
2023/11/05 02:09:15;;;;;;;4.90;0.82;;;9.50;99.90;;;;;;15579752;22;20027;-34
2023/11/05 02:15:48;;;;;;;3.88;0.80;;;9.60;99.90;;;;;;15502488;23;20534;-34
2023/11/05 02:22:45;;;;;;;3.75;0.77;;;9.70;99.90;;;;;;15483650;23;20023;-34
2023/11/05 02:29:27;;;;;;;4.68;0.75;;;9.60;99.90;;;;;;15502248;23;20458;-34
2023/11/05 02:36:05;;;;;;;7.72;1.35;;;9.50;99.90;;;;;;15506675;23;20028;-34
2023/11/05 02:42:43;;;;;;;5.60;0.93;;;9.40;99.90;;;;;;15502406;23;20024;-34
2023/11/05 02:49:14;;;;;;;6.20;0.70;;;9.30;99.90;;;;;;15505308;23;20382;-34
2023/11/05 02:55:50;;;;;;;6.35;1.00;;;9.20;99.90;;;;;;15505715;23;20043;-33
2023/11/05 03:02:33;;;;;;;4.22;0.93;;;9.20;99.90;;;;;;15503210;23;20020;-35
2023/11/05 03:09:09;;;;;;;3.55;1.00;;;9.30;99.90;;;;;;15504396;23;20099;-34
2023/11/05 03:15:31;;;;;;;3.38;0.80;;;9.20;99.90;;;;;;15577156;22;20030;-34
2023/11/05 03:21:58;;;;;;;4.20;1.02;;;9.30;99.90;;;;;;15576591;22;20026;-33
2023/11/05 03:28:29;;;;;;;2.85;0.82;;;9.30;99.90;;;;;;15574072;22;20019;-34
2023/11/05 03:34:52;;;;;;;3.40;0.73;;;9.40;99.90;;;;;;15575413;22;20016;-33
2023/11/05 03:41:13;;;;;;;7.70;1.00;;;9.50;99.90;;;;;;15574156;22;20028;-34
2023/11/05 03:47:34;;;;;;;3.60;0.80;;;9.50;99.90;;;;;;15576278;22;20094;-34
2023/11/05 03:54:02;;;;;;;5.00;0.93;;;9.60;99.90;;;;;;15577495;22;20024;-33
2023/11/05 04:00:28;;;;;;;2.70;0.60;;;9.50;99.90;;;;;;15568779;22;20024;-33
2023/11/05 04:06:53;;;;;;;3.20;0.85;;;9.40;99.90;;;;;;15579637;22;20461;-34
2023/11/05 04:13:28;;;;;;;6.97;1.10;;;9.40;99.90;;;;;;15576800;22;20102;-34
2023/11/05 04:19:52;;;;;;;5.05;1.00;;;9.40;99.90;;;;;;15576901;22;20016;-34
2023/11/05 04:26:15;;;;;;;4.68;0.70;;;9.30;99.90;;;;;;15578016;22;20526;-34
2023/11/05 04:32:38;;;;;;;5.93;0.80;;;9.30;99.90;;;;;;15553810;22;20473;-34
2023/11/05 04:39:05;;;;;;;2.45;0.70;;;9.30;99.90;;;;;;15579507;22;20114;-33
2023/11/05 04:45:34;;;;;;;3.35;0.60;;;9.30;99.90;;;;;;15579401;22;20334;-34
2023/11/05 04:52:07;;;;;;;4.28;0.73;;;9.30;99.90;;;;;;15550024;22;20034;-34
2023/11/05 04:58:47;;;;;;;2.08;0.68;;;9.30;99.90;;;;;;15575303;22;20026;-33
2023/11/05 05:05:14;;;;;;;3.50;0.60;;;9.20;99.90;;;;;;15580361;22;20044;-33
2023/11/05 05:11:53;;;;;;;3.22;0.70;;;9.30;99.90;;;;;;15577503;22;20030;-34
2023/11/05 05:18:26;;;;;;;3.00;0.60;;;9.20;99.90;;;;;;15578862;22;20023;-33
2023/11/05 05:25:02;;;;;;;2.78;0.80;;;9.20;99.90;;;;;;15579440;22;20154;-33
2023/11/05 05:31:39;;;;;;;3.75;0.73;;;9.20;99.90;;;;;;15576704;22;20042;-34
2023/11/05 05:38:11;;;;;;;3.47;0.90;;;9.20;99.90;;;;;;15558859;22;20031;-33
2023/11/05 05:44:33;;;;;;;2.25;0.85;;;9.20;99.90;;;;;;15579603;22;20330;-34
2023/11/05 05:50:57;;;;;;;2.72;0.85;;;9.10;99.90;;;;;;15583129;22;20035;-34
2023/11/05 05:57:36;;;;;;;4.03;0.90;;;9.20;99.90;;;;;;15583079;22;20112;-34
2023/11/05 06:04:07;;;;;;;3.03;1.00;;;9.20;99.90;;;;;;15582652;22;20051;-34
2023/11/05 06:10:37;;;;;;;0.95;0.60;;;9.20;99.90;;;;;;15586411;22;20031;-33
2023/11/05 06:17:11;;;;;;;4.07;0.80;;;9.20;99.90;;;;;;15584445;22;20031;-34
2023/11/05 06:23:27;;;;;;;1.73;0.57;;;9.20;99.90;;;;;;15581237;22;20020;-34
2023/11/05 06:30:05;;;;;;;3.10;0.63;;;9.20;99.90;;;;;;15579942;22;20031;-34
2023/11/05 06:36:26;;;;;;;3.30;0.68;;;9.30;99.90;;;;;;15577186;22;20049;-33
2023/11/05 06:42:49;;;;;;;1.45;0.40;;;9.30;99.90;;;;;;15579002;22;20020;-33
2023/11/05 06:49:22;;;;;;;1.70;0.52;;;9.30;99.90;;;;;;15577560;22;20020;-33
2023/11/05 06:55:46;;;;;;;4.87;0.53;;;9.40;99.90;;;;;;15575346;22;20028;-35
2023/11/05 07:02:16;;;;;;;4.55;0.47;;;9.50;99.90;;;;;;15578305;22;20030;-33
2023/11/05 07:08:48;;;;;;;1.17;0.35;;;9.50;99.90;;;;;;15580243;22;20055;-34
2023/11/05 07:15:18;;;;;;;1.80;0.52;;;9.50;99.90;;;;;;15579320;22;20028;-33
2023/11/05 07:21:50;;;;;;;1.20;0.40;;;9.60;99.90;;;;;;15555354;22;20051;-34
2023/11/05 07:28:30;;;;;;;1.40;0.30;;;9.60;99.90;;;;;;15556478;22;20028;-33
2023/11/05 07:35:16;;;;;;;0.57;0.30;;;9.70;99.90;;;;;;15558546;22;20430;-34
2023/11/05 07:41:55;;;;;;;1.65;0.30;;;9.60;99.90;;;;;;15578999;22;20532;-34
2023/11/05 07:48:22;;;;;;;1.08;0.35;;;9.70;99.90;;;;;;15553902;22;20016;-33
2023/11/05 07:55:02;;;;;;;2.92;0.30;;;9.60;99.90;;;;;;15578446;22;20026;-33
2023/11/05 08:01:37;;;;;;;1.17;0.30;;;9.50;99.90;;;;;;15575913;22;20016;-33
2023/11/05 08:08:23;;;;;;;2.10;0.35;;;9.60;99.90;;;;;;15578679;22;20022;-34
2023/11/05 08:15:06;;;;;;;1.55;0.35;;;9.70;99.90;;;;;;15579138;22;20086;-33
2023/11/05 08:21:30;;;;;;;1.08;0.40;;;9.90;99.90;;;;;;15576750;22;20458;-33
2023/11/05 08:27:42;;;;;;;1.55;0.30;;;9.90;99.90;;;;;;15576817;22;20031;-34
2023/11/05 08:34:47;;;;;;;1.83;0.35;;;9.90;99.90;;;;;;15561449;22;20095;-34
2023/11/05 08:41:34;;;;;;;0.82;0.30;;;10.00;99.90;;;;;;15580016;22;20094;-34
2023/11/05 08:48:08;;;;;;;0.73;0.30;;;10.20;99.90;;;;;;15554011;22;20097;-34
2023/11/05 08:54:44;;;;;;;1.25;0.40;;;10.20;99.90;;;;;;15580074;22;20350;-33
2023/11/05 09:01:12;;;;;;;0.77;0.22;;;10.30;99.90;;;;;;15576064;22;20576;-34
2023/11/05 09:07:43;;;;;;;1.65;0.43;;;10.50;99.90;;;;;;15576670;22;20019;-34
2023/11/05 09:14:13;;;;;;;1.85;0.30;;;10.50;99.90;;;;;;15583626;22;20027;-34
2023/11/05 09:20:47;;;;;;;0.65;0.20;;;10.50;99.90;;;;;;15580031;22;20055;-34
2023/11/05 09:27:17;;;;;;;1.95;0.30;;;10.60;99.90;;;;;;15562286;22;20373;-33
2023/11/05 09:33:55;;;;;;;1.02;0.50;;;10.70;99.90;;;;;;15582478;22;20019;-33
2023/11/05 09:40:27;;;;;;;2.08;0.20;;;10.80;99.90;;;;;;15582002;22;20319;-34
2023/11/05 09:47:09;;;;;;;0.50;0.20;;;11.00;99.90;;;;;;15583111;22;20023;-34
2023/11/05 09:53:35;;;;;;;0.20;0.13;;;11.00;99.90;;;;;;15582539;22;20030;-34
2023/11/05 10:00:09;;;;;;;0.88;0.30;;;11.10;99.90;;;;;;15579282;22;20101;-34
2023/11/05 10:06:37;;;;;;;1.85;0.40;;;11.10;99.90;;;;;;15581651;22;20030;-34
2023/11/05 10:13:08;;;;;;;1.05;0.35;;;11.30;99.90;;;;;;15583493;22;20027;-33
2023/11/05 10:19:36;;;;;;;0.57;0.20;;;11.40;99.90;;;;;;15580208;22;20027;-34
2023/11/05 10:26:12;;;;;;;1.48;0.30;;;11.40;99.90;;;;;;15579233;22;20043;-34
2023/11/05 10:32:48;;;;;;;2.00;0.30;;;11.50;99.90;;;;;;15572517;22;20027;-34
2023/11/05 10:39:18;;;;;;;0.98;0.30;;;11.60;99.90;;;;;;15578272;22;20028;-33
2023/11/05 10:45:55;;;;;;;1.13;0.40;;;11.70;99.90;;;;;;15554299;22;20099;-34
2023/11/05 10:52:28;;;;;;;0.82;0.30;;;11.70;99.90;;;;;;15552653;22;20055;-34
2023/11/05 10:59:03;;;;;;;0.77;0.40;;;11.60;99.90;;;;;;15576019;22;20031;-34
2023/11/05 11:05:48;;;;;;;1.27;0.50;;;11.60;99.90;;;;;;15579843;22;20027;-34
2023/11/05 11:12:40;;;;;;;1.85;0.50;;;11.60;99.90;;;;;;15578960;22;20028;-34
2023/11/05 11:19:30;;;;;;;2.15;0.65;;;11.60;99.90;;;;;;15578053;22;20488;-34
2023/11/05 11:26:32;;;;;;;2.55;0.70;;;11.60;99.90;;;;;;15557139;22;20042;-34
2023/11/05 11:33:11;;;;;;;2.38;1.00;;;11.50;99.90;;;;;;15576507;22;20378;-34
2023/11/05 11:39:56;;;;;;;2.08;0.80;;;11.40;99.90;;;;;;15579656;22;20113;-34
2023/11/05 11:46:56;;;;;;;2.10;0.68;;;11.30;99.90;;;;;;15577883;22;20024;-34
2023/11/05 11:53:47;;;;;;;2.80;0.85;;;11.30;99.90;;;;;;15555302;22;20023;-34
2023/11/05 12:00:30;;;;;;;2.30;0.80;;;11.30;99.90;;;;;;15576867;22;20023;-34
2023/11/05 12:07:12;;;;;;;3.83;1.10;;;11.30;99.90;;;;;;15556563;22;20019;-34
2023/11/05 12:14:02;;;;;;;2.15;1.10;;;11.40;99.90;;;;;;15553430;22;20086;-33
2023/11/05 12:20:48;;;;;;;3.00;0.90;;;11.40;99.90;;;;;;15577233;22;20024;-33
2023/11/05 12:27:28;;;;;;;3.55;1.20;;;11.40;99.90;;;;;;15578944;22;20047;-34
2023/11/05 12:34:00;;;;;;;2.90;1.08;;;11.40;99.90;;;;;;15578959;22;20024;-34
2023/11/05 12:40:41;;;;;;;2.35;1.45;;;11.40;99.90;;;;;;15578150;22;20461;-34
2023/11/05 12:47:22;;;;;;;3.58;1.40;;;11.50;99.90;;;;;;15577831;22;20024;-34
2023/11/05 12:53:58;;;;;;;4.22;1.90;;;11.50;99.90;;;;;;15579072;22;20039;-33
2023/11/05 13:00:40;;;;;;;4.38;1.73;;;11.40;99.90;;;;;;15576996;22;20024;-33
2023/11/05 13:07:14;;;;;;;6.60;1.30;;;11.30;99.90;;;;;;15577663;22;20019;-33
2023/11/05 13:13:42;;;;;;;3.90;1.80;;;11.10;99.90;;;;;;15577484;22;20106;-34
2023/11/05 13:20:11;;;;;;;2.65;1.30;;;10.90;99.90;;;;;;15552846;22;20523;-34
2023/11/05 13:26:52;;;;;;;2.65;1.38;;;10.80;99.90;;;;;;15576145;22;20027;-33
2023/11/05 13:33:37;;;;;;;3.65;1.70;;;10.80;99.90;;;;;;15575515;22;20019;-34
2023/11/05 13:40:09;;;;;;;2.58;1.40;;;10.80;99.90;;;;;;15552554;22;20031;-34
2023/11/05 13:46:54;;;;;;;2.85;1.23;;;10.80;99.90;;;;;;15550816;22;20038;-34
2023/11/05 13:53:31;;;;;;;5.28;1.83;;;10.70;99.90;;;;;;15552542;22;20474;-34
2023/11/05 14:00:00;;;;;;;2.65;1.58;;;10.70;99.90;;;;;;15574106;22;20015;-34
2023/11/05 14:06:32;;;;;;;2.60;1.20;;;10.70;99.90;;;;;;15577111;22;20078;-33
2023/11/05 14:13:32;;;;;;;3.30;1.50;;;10.70;99.90;;;;;;15562843;22;20353;-34
2023/11/05 14:20:18;;;;;;;2.78;1.50;;;10.60;99.90;;;;;;15567500;22;20346;-34
2023/11/05 14:26:58;;;;;;;2.63;1.50;;;10.60;99.90;;;;;;15563253;22;20031;-33
2023/11/05 14:33:29;;;;;;;3.40;1.35;;;10.60;99.90;;;;;;15575862;22;20227;-33
2023/11/05 14:39:56;;;;;;;3.40;1.10;;;10.70;99.90;;;;;;15578334;22;20054;-34
2023/11/05 14:46:28;;;;;;;3.70;1.60;;;10.70;99.90;;;;;;15580924;22;20016;-33
2023/11/05 14:53:07;;;;;;;3.40;1.30;;;10.70;99.90;;;;;;15579594;22;20111;-33
2023/11/05 14:59:53;;;;;;;5.07;1.70;;;10.80;99.90;;;;;;15579095;22;20020;-34
2023/11/05 15:06:19;;;;;;;5.45;1.70;;;10.70;99.90;;;;;;15581553;22;20024;-33
2023/11/05 15:12:44;;;;;;;7.03;1.92;;;10.70;99.90;;;;;;15580214;22;20028;-33
2023/11/05 15:19:23;;;;;;;4.47;2.03;;;10.80;99.90;;;;;;15555259;22;20453;-33
2023/11/05 15:25:45;;;;;;;8.23;2.38;;;10.80;99.90;;;;;;15580179;22;20089;-34
2023/11/05 15:31:54;;;;;;;7.72;2.53;;;10.70;99.90;;;;;;15583678;22;20023;-33
2023/11/05 15:38:25;;;;;;;4.00;2.50;;;10.60;99.90;;;;;;15581280;22;20024;-34
2023/11/05 15:44:47;;;;;;;5.07;2.03;;;10.50;99.90;;;;;;15569842;22;20024;-34
2023/11/05 15:51:09;;;;;;;4.13;1.92;;;10.50;99.90;;;;;;15580093;22;20030;-33
2023/11/05 15:57:40;;;;;;;4.15;1.98;;;10.50;99.90;;;;;;15579376;22;20039;-33
2023/11/05 16:04:09;;;;;;;5.13;1.60;;;10.60;99.90;;;;;;15578363;22;20020;-34
2023/11/05 16:10:34;;;;;;;3.15;1.42;;;10.60;99.90;;;;;;15578951;22;20082;-33
2023/11/05 16:16:47;;;;;;;4.15;1.83;;;10.60;99.90;;;;;;15576746;22;20031;-33
2023/11/05 16:23:00;;;;;;;9.02;2.10;;;10.60;99.90;;;;;;15575772;22;20095;-34
2023/11/05 16:29:27;;;;;;;4.80;2.08;;;10.50;99.90;;;;;;15579584;22;20073;-33
2023/11/05 16:35:57;;;;;;;5.20;2.13;;;10.40;99.90;;;;;;15578034;22;20022;-34
2023/11/05 16:42:12;;;;;;;5.47;2.10;;;10.40;99.90;;;;;;15575931;22;20073;-33
2023/11/05 16:48:37;;;;;;;5.38;1.70;;;10.40;99.90;;;;;;15554069;22;20068;-33
2023/11/05 16:55:02;;;;;;;4.93;2.28;;;10.30;99.90;;;;;;15579518;22;20047;-33
2023/11/05 17:01:35;;;;;;;4.65;2.17;;;10.30;99.90;;;;;;15575833;22;20023;-34
2023/11/05 17:08:01;;;;;;;6.18;2.05;;;10.30;99.90;;;;;;15578891;22;20016;-33
2023/11/05 17:14:22;;;;;;;6.10;2.20;;;10.30;99.90;;;;;;15552703;22;20117;-33
2023/11/05 17:20:34;;;;;;;6.40;2.38;;;10.30;99.90;;;;;;15577565;22;20020;-33
2023/11/05 17:26:54;;;;;;;5.28;2.17;;;10.30;99.90;;;;;;15475615;22;20366;-33
2023/11/05 17:33:24;;;;;;;5.32;2.30;;;10.20;99.90;;;;;;15581415;22;20019;-33
2023/11/05 17:39:44;;;;;;;5.00;2.10;;;10.30;99.90;;;;;;15584300;22;20477;-33
2023/11/05 17:46:12;;;;;;;4.93;1.90;;;10.40;99.90;;;;;;15586213;22;20020;-34
2023/11/05 17:52:33;;;;;;;4.15;1.77;;;10.30;99.90;;;;;;15586078;22;20516;-34
2023/11/05 17:58:53;;;;;;;4.35;1.80;;;10.30;99.90;;;;;;15583923;22;20121;-34
2023/11/05 18:05:30;;;;;;;3.75;1.80;;;10.30;99.90;;;;;;15584627;22;20492;-33
2023/11/05 18:11:46;;;;;;;4.95;1.80;;;10.30;99.90;;;;;;15581499;22;20023;-34
2023/11/05 18:18:12;;;;;;;5.97;1.77;;;10.20;99.90;;;;;;15584166;22;20019;-34
2023/11/05 18:24:27;;;;;;;7.38;1.98;;;10.20;99.90;;;;;;15582324;22;20019;-34
2023/11/05 18:30:43;;;;;;;7.03;1.80;;;10.10;99.90;;;;;;15580077;22;20031;-34
2023/11/05 18:37:00;;;;;;;5.45;1.90;;;10.10;99.90;;;;;;15581572;22;20043;-34
2023/11/05 18:43:24;;;;;;;5.05;2.20;;;9.90;99.90;;;;;;15556730;22;20081;-34
2023/11/05 18:49:37;;;;;;;5.22;2.60;;;10.00;99.90;;;;;;15582089;22;20051;-34
2023/11/05 18:55:51;;;;;;;9.95;2.60;;;10.00;99.90;;;;;;15583446;22;20024;-34
2023/11/05 19:02:12;;;;;;;6.75;2.90;;;9.90;99.90;;;;;;15581105;22;20389;-34
2023/11/05 19:08:49;;;;;;;9.10;2.88;;;10.00;99.90;;;;;;15582459;22;20073;-33
2023/11/05 19:15:22;;;;;;;6.67;2.80;;;10.00;99.90;;;;;;15581366;22;20050;-33
2023/11/05 19:21:44;;;;;;;8.65;2.58;;;10.10;99.90;;;;;;15578846;22;20026;-33
2023/11/05 19:28:02;;;;;;;5.90;2.28;;;10.00;99.90;;;;;;15580850;22;20065;-33
2023/11/05 19:34:25;;;;;;;5.72;2.50;;;10.10;99.90;;;;;;15580334;22;20031;-33
2023/11/05 19:40:50;;;;;;;10.60;2.80;;;10.00;99.90;;;;;;15581871;22;20496;-33
2023/11/05 19:47:18;;;;;;;6.63;2.27;;;10.00;99.90;;;;;;15581282;22;20356;-33
2023/11/05 19:53:46;;;;;;;7.80;2.15;;;10.00;99.90;;;;;;15581526;22;20031;-33
2023/11/05 20:00:03;;;;;;;7.90;1.80;;;10.00;99.90;;;;;;15577800;22;20150;-33
2023/11/05 20:06:29;;;;;;;3.88;1.58;;;9.90;99.90;;;;;;15554915;22;20350;-33
2023/11/05 20:13:01;;;;;;;6.35;1.48;;;10.00;99.90;;;;;;15581611;22;20465;-33
2023/11/05 20:19:19;;;;;;;7.00;1.65;;;10.10;99.90;;;;;;15580812;22;20051;-33
2023/11/05 20:25:36;;;;;;;4.55;1.40;;;10.20;99.90;;;;;;15553979;22;20059;-33
2023/11/05 20:32:04;;;;;;;5.40;2.63;;;10.20;99.90;;;;;;15556154;22;20458;-34
2023/11/05 20:38:38;;;;;;;6.45;2.38;;;10.20;99.90;;;;;;15579846;22;20077;-34
2023/11/05 20:44:56;;;;;;;3.75;1.45;;;10.20;99.90;;;;;;15576782;22;20561;-33
2023/11/05 20:51:28;;;;;;;5.47;2.53;;;10.20;99.90;;;;;;15575857;22;20470;-33
2023/11/05 20:57:56;;;;;;;6.15;1.70;;;10.30;99.90;;;;;;15579386;22;20059;-33
2023/11/05 21:04:22;;;;;;;7.60;1.50;;;10.40;99.90;;;;;;15576000;22;20051;-34
2023/11/05 21:11:06;;;;;;;4.53;1.35;;;10.40;99.90;;;;;;15556558;22;20051;-34
2023/11/05 21:17:28;;;;;;;9.20;1.40;;;10.40;99.90;;;;;;15501831;23;20139;-33
2023/11/05 21:23:47;;;;;;;5.60;1.58;;;10.50;99.90;;;;;;15501896;23;20024;-34
2023/11/05 21:30:09;;;;;;;4.38;1.40;;;10.40;99.90;;;;;;15497620;23;20023;-33
2023/11/05 21:36:45;;;;;;;4.53;1.40;;;10.40;99.90;;;;;;15479726;23;20027;-33
2023/11/05 21:43:22;;;;;;;5.18;1.20;;;10.40;99.90;;;;;;15499092;23;20020;-34
2023/11/05 21:49:44;;;;;;;6.40;1.52;;;10.40;99.90;;;;;;15478602;23;20044;-34
2023/11/05 21:56:01;;;;;;;4.53;1.85;;;10.30;99.90;;;;;;15500418;23;20063;-34
2023/11/05 22:02:41;;;;;;;3.17;1.20;;;10.20;99.90;;;;;;15501236;23;20087;-33
2023/11/05 22:09:07;;;;;;;6.40;1.42;;;10.20;99.90;;;;;;15501348;23;20039;-34
2023/11/05 22:15:42;;;;;;;4.90;1.33;;;10.20;99.90;;;;;;15536205;22;20420;-33
2023/11/05 22:22:18;;;;;;;3.92;1.20;;;10.10;99.90;;;;;;15580137;22;20020;-34
2023/11/05 22:28:51;;;;;;;5.22;1.20;;;10.10;99.90;;;;;;15559826;22;20020;-33
2023/11/05 22:35:16;;;;;;;5.35;1.05;;;10.10;99.90;;;;;;15584014;22;20078;-33
2023/11/05 22:41:41;;;;;;;4.32;1.20;;;10.10;99.90;;;;;;15581708;22;20429;-33
2023/11/05 22:48:08;;;;;;;3.47;1.10;;;10.10;99.90;;;;;;15582922;22;20039;-33
2023/11/05 22:54:36;;;;;;;5.00;1.52;;;10.10;99.90;;;;;;15555595;22;20023;-33
2023/11/05 23:01:16;;;;;;;6.18;1.33;;;10.20;99.90;;;;;;15579896;22;20450;-33
2023/11/05 23:07:48;;;;;;;5.90;1.80;;;10.00;99.90;;;;;;15581353;22;20030;-33
2023/11/05 23:14:19;;;;;;;7.65;1.73;;;10.20;99.90;;;;;;15578089;22;20083;-33
2023/11/05 23:20:52;;;;;;;7.68;1.70;;;10.10;99.90;;;;;;15579298;22;20031;-33
2023/11/05 23:27:29;;;;;;;10.80;2.17;;;9.90;99.90;;;;;;15576866;22;20024;-33
2023/11/05 23:34:03;;;;;;;7.57;1.90;;;9.90;99.90;;;;;;15578639;22;20598;-33
2023/11/05 23:40:27;;;;;;;5.40;1.50;;;9.90;99.90;;;;;;15580686;22;20019;-33
2023/11/05 23:47:04;;;;;;;5.95;1.65;;;9.90;99.90;;;;;;15555212;22;20027;-33
2023/11/05 23:53:38;;;;;;;7.20;1.80;;;9.80;99.90;;;;;;15578168;22;20183;-33
